Time;durP1;ratioP1;P1;durP2;ratioP2;P2;SDS_P1;SDS_P2;PMS_P1;PMS_P2;Temp;Humidity;BMP_temperature;BMP_pressure;BME280_temperature;BME280_humidity;BME280_pressure;Samples;Min_cycle;Max_cycle;Signal;HPM_P1;HPM_P2
2024/01/16 00:01:36;;;;;;;1.50;0.37;;;;;;;0.60;100.00;99476.00;5096798;28;20492;-69
2024/01/16 00:04:03;;;;;;;1.50;0.30;;;;;;;0.59;100.00;99473.59;5096723;28;20803;-69
2024/01/16 00:06:29;;;;;;;1.50;0.30;;;;;;;0.55;100.00;99470.66;5096451;28;20576;-69
2024/01/16 00:08:56;;;;;;;1.50;0.30;;;;;;;0.52;100.00;99468.50;5096481;28;20523;-69
2024/01/16 00:11:22;;;;;;;15.57;2.90;;;;;;;0.48;100.00;99470.91;5096017;28;20451;-69
2024/01/16 00:13:49;;;;;;;1.50;0.30;;;;;;;0.46;100.00;99474.91;5096320;28;20445;-69
2024/01/16 00:16:16;;;;;;;1.50;0.30;;;;;;;0.47;100.00;99476.50;5096345;28;20468;-69
2024/01/16 00:18:44;;;;;;;1.50;0.30;;;;;;;0.42;100.00;99481.81;5096220;28;20472;-69
2024/01/16 00:21:10;;;;;;;1.50;0.30;;;;;;;0.39;100.00;99477.00;5096116;28;20441;-69
2024/01/16 00:23:37;;;;;;;1.50;0.30;;;;;;;0.36;100.00;99477.53;5096442;28;20433;-69
2024/01/16 00:26:04;;;;;;;1.50;0.30;;;;;;;0.34;100.00;99480.44;5095664;28;20571;-69
2024/01/16 00:28:32;;;;;;;1.60;0.40;;;;;;;0.36;100.00;99489.00;5096259;28;20531;-69
2024/01/16 00:30:59;;;;;;;1.60;0.40;;;;;;;0.34;100.00;99499.09;5095993;28;20436;-69
2024/01/16 00:33:27;;;;;;;1.50;0.30;;;;;;;0.24;100.00;99509.69;5095907;28;20509;-69
2024/01/16 00:35:55;;;;;;;1.50;0.40;;;;;;;0.14;100.00;99518.44;5095960;28;20448;-69
2024/01/16 00:38:22;;;;;;;1.50;0.30;;;;;;;0.14;100.00;99529.09;5096045;28;20480;-70
2024/01/16 00:40:48;;;;;;;1.60;0.40;;;;;;;0.14;100.00;99528.28;5095381;28;20532;-69
2024/01/16 00:43:15;;;;;;;1.50;0.30;;;;;;;0.08;100.00;99538.09;5094715;28;20461;-70
2024/01/16 00:45:42;;;;;;;1.50;0.30;;;;;;;-0.08;100.00;99555.03;5094951;28;20587;-69
2024/01/16 00:48:10;;;;;;;1.50;0.30;;;;;;;-0.08;100.00;99558.50;5094714;28;20535;-69
2024/01/16 00:50:36;;;;;;;1.70;0.80;;;;;;;-0.15;100.00;99554.47;5094840;28;20524;-69
2024/01/16 00:53:05;;;;;;;1.50;0.30;;;;;;;-0.19;100.00;99553.34;5094214;28;21036;-69
2024/01/16 00:55:31;;;;;;;1.50;0.30;;;;;;;-0.19;100.00;99564.00;5094898;28;20432;-70
2024/01/16 00:57:58;;;;;;;1.50;0.40;;;;;;;-0.23;100.00;99570.88;5095031;28;20528;-69
2024/01/16 01:00:25;;;;;;;1.50;0.30;;;;;;;-0.34;100.00;99578.00;5094861;28;20523;-70
2024/01/16 01:02:51;;;;;;;1.57;0.30;;;;;;;-0.53;100.00;99570.41;5094112;28;20518;-71
2024/01/16 01:05:18;;;;;;;1.97;0.40;;;;;;;-0.52;100.00;99571.22;5094417;28;20440;-70
2024/01/16 01:07:44;;;;;;;1.50;0.30;;;;;;;-0.44;100.00;99575.25;5094335;28;20468;-70
2024/01/16 01:10:12;;;;;;;2.47;0.70;;;;;;;-0.40;100.00;99581.66;5094375;28;20527;-70
2024/01/16 01:12:39;;;;;;;1.60;0.50;;;;;;;-0.37;100.00;99583.81;5094253;28;21085;-71
2024/01/16 01:15:07;;;;;;;1.60;0.50;;;;;;;-0.39;100.00;99581.44;5094256;28;20485;-71
2024/01/16 01:17:33;;;;;;;1.60;0.50;;;;;;;-0.33;100.00;99585.72;5094222;28;20981;-70
2024/01/16 01:20:00;;;;;;;1.50;0.30;;;;;;;-0.28;100.00;99584.97;5094589;28;20468;-71
2024/01/16 01:22:26;;;;;;;1.50;0.30;;;;;;;-0.30;100.00;99587.09;5094045;28;20863;-71
2024/01/16 01:24:53;;;;;;;1.50;0.30;;;;;;;-0.33;100.00;99595.56;5094062;28;20523;-71
2024/01/16 01:27:21;;;;;;;1.50;0.30;;;;;;;-0.26;100.00;99591.66;5094047;28;20484;-71
2024/01/16 01:29:48;;;;;;;1.50;0.30;;;;;;;-0.34;100.00;99594.75;5094445;28;20447;-71
2024/01/16 01:32:14;;;;;;;1.50;0.30;;;;;;;-0.33;100.00;99580.41;5093553;28;20495;-71
2024/01/16 01:34:42;;;;;;;1.50;0.30;;;;;;;-0.30;100.00;99581.75;5094282;28;20629;-70
2024/01/16 01:37:09;;;;;;;1.50;0.30;;;;;;;-0.38;100.00;99587.53;5094052;28;20439;-70
2024/01/16 01:39:35;;;;;;;1.50;0.30;;;;;;;-0.36;100.00;99596.84;5053440;28;1136521;-70
2024/01/16 01:42:02;;;;;;;1.50;0.40;;;;;;;-0.37;100.00;99600.59;5094553;28;20456;-70
2024/01/16 01:44:30;;;;;;;1.50;0.30;;;;;;;-0.37;100.00;99605.09;5094833;28;20527;-70
2024/01/16 01:46:57;;;;;;;1.50;0.37;;;;;;;-0.34;100.00;99604.59;5094534;28;20484;-70
2024/01/16 01:49:25;;;;;;;1.50;0.30;;;;;;;-0.38;100.00;99604.31;5094518;28;20507;-70
2024/01/16 01:51:53;;;;;;;1.50;0.30;;;;;;;-0.39;100.00;99616.00;5093792;28;20464;-70
2024/01/16 01:54:20;;;;;;;1.50;0.40;;;;;;;-0.34;100.00;99631.22;5094319;28;20464;-70
2024/01/16 01:56:48;;;;;;;1.50;0.40;;;;;;;-0.34;100.00;99625.88;5094459;28;20443;-70
2024/01/16 01:59:18;;;;;;;1.50;0.30;;;;;;;-0.36;100.00;99631.44;5094371;28;20436;-70
2024/01/16 02:01:46;;;;;;;1.50;0.30;;;;;;;-0.37;100.00;99632.50;5094181;28;21014;-70
2024/01/16 02:04:15;;;;;;;1.70;0.77;;;;;;;-0.33;100.00;99628.28;5094153;28;20770;-71
2024/01/16 02:06:42;;;;;;;1.50;0.30;;;;;;;-0.29;100.00;99625.94;5094305;28;20533;-70
2024/01/16 02:09:09;;;;;;;1.50;0.30;;;;;;;-0.25;100.00;99635.00;5094257;28;20532;-70
2024/01/16 02:11:35;;;;;;;1.47;0.30;;;;;;;-0.40;100.00;99635.69;5094184;28;20964;-71
2024/01/16 02:14:02;;;;;;;1.50;0.40;;;;;;;-0.41;100.00;99631.41;5094512;28;20441;-71
2024/01/16 02:16:37;;;;;;;1.50;0.30;;;;;;;-0.37;100.00;99634.38;5094064;28;20887;-71
2024/01/16 02:19:05;;;;;;;1.90;0.70;;;;;;;-0.31;100.00;99628.84;5094375;28;20411;-71
2024/01/16 02:21:37;;;;;;;1.50;0.40;;;;;;;-0.42;100.00;99648.41;5093955;28;20547;-70
2024/01/16 02:24:07;;;;;;;1.50;0.30;;;;;;;-0.42;100.00;99651.09;5094160;28;20787;-70
2024/01/16 02:26:34;;;;;;;1.50;0.40;;;;;;;-0.42;100.00;99666.25;5093995;28;20566;-70
2024/01/16 02:29:02;;;;;;;1.50;0.40;;;;;;;-0.42;100.00;99661.72;5093917;28;21007;-70
2024/01/16 02:31:28;;;;;;;1.50;0.30;;;;;;;-0.34;100.00;99663.94;5093626;28;20484;-70
2024/01/16 02:33:55;;;;;;;1.50;0.40;;;;;;;-0.29;100.00;99665.84;5093637;28;20444;-70
2024/01/16 02:36:21;;;;;;;1.60;0.57;;;;;;;-0.45;100.00;99678.16;5093813;28;20843;-70
2024/01/16 02:38:48;;;;;;;1.97;0.60;;;;;;;-0.46;100.00;99676.56;5093786;28;20440;-70
2024/01/16 02:41:17;;;;;;;8.20;1.40;;;;;;;-0.40;100.00;99680.06;5093365;28;20456;-70
2024/01/16 02:43:43;;;;;;;1.50;0.30;;;;;;;-0.41;100.00;99689.13;5093897;28;20476;-70
2024/01/16 02:46:10;;;;;;;1.50;0.30;;;;;;;-0.49;100.00;99697.53;5093916;28;20571;-70
2024/01/16 02:48:37;;;;;;;1.50;0.30;;;;;;;-0.53;100.00;99700.72;5093647;28;20813;-70
2024/01/16 02:51:04;;;;;;;1.50;0.40;;;;;;;-0.68;100.00;99705.84;5093354;28;20975;-70
2024/01/16 02:53:31;;;;;;;1.50;0.40;;;;;;;-0.72;100.00;99699.44;5093351;28;20472;-69
2024/01/16 02:55:58;;;;;;;1.50;0.30;;;;;;;-0.66;100.00;99705.63;5093612;28;20436;-69
2024/01/16 02:58:27;;;;;;;1.50;0.30;;;;;;;-0.64;100.00;99714.16;5093352;28;20951;-69
2024/01/16 03:00:54;;;;;;;1.50;0.30;;;;;;;-0.72;100.00;99709.25;5093245;28;20524;-69
2024/01/16 03:03:21;;;;;;;1.50;0.30;;;;;;;-0.70;100.00;99707.16;5094964;28;20543;-70
2024/01/16 03:05:47;;;;;;;1.50;0.30;;;;;;;-0.67;100.00;99711.97;5097638;28;20428;-70
2024/01/16 03:08:14;;;;;;;1.70;0.53;;;;;;;-0.64;100.00;99730.09;5098061;28;20463;-69
2024/01/16 03:10:41;;;;;;;1.50;0.30;;;;;;;-0.61;100.00;99732.28;5097672;28;20511;-69
2024/01/16 03:13:07;;;;;;;1.50;0.40;;;;;;;-0.63;100.00;99729.03;5097892;28;20466;-69
2024/01/16 03:15:36;;;;;;;1.50;0.40;;;;;;;-0.67;100.00;99730.59;5097494;28;20531;-69
2024/01/16 03:18:02;;;;;;;3.67;0.83;;;;;;;-0.67;100.00;99733.25;5097593;28;20738;-69
2024/01/16 03:20:29;;;;;;;1.50;0.30;;;;;;;-0.65;100.00;99737.28;5098329;28;20527;-69
2024/01/16 03:22:56;;;;;;;1.50;0.30;;;;;;;-0.66;100.00;99741.00;5097317;28;20543;-69
2024/01/16 03:25:22;;;;;;;1.50;0.30;;;;;;;-0.64;100.00;99754.03;5097034;28;21050;-69
2024/01/16 03:27:49;;;;;;;1.80;0.70;;;;;;;-0.65;100.00;99747.13;5097665;28;20476;-70
2024/01/16 03:30:15;;;;;;;1.60;0.60;;;;;;;-0.62;100.00;99752.75;5097000;28;20472;-69
2024/01/16 03:32:44;;;;;;;1.50;0.30;;;;;;;-0.65;100.00;99757.75;5097346;28;20513;-69
2024/01/16 03:35:10;;;;;;;1.50;0.30;;;;;;;-0.69;100.00;99768.06;5097673;28;20446;-69
2024/01/16 03:37:38;;;;;;;1.50;0.30;;;;;;;-0.75;100.00;99769.06;5097210;28;20435;-70
2024/01/16 03:40:07;;;;;;;1.50;0.40;;;;;;;-0.71;100.00;99782.66;5096630;28;20520;-69
2024/01/16 03:42:34;;;;;;;1.50;0.30;;;;;;;-0.74;100.00;99789.28;5097006;28;20464;-69
2024/01/16 03:45:00;;;;;;;1.50;0.30;;;;;;;-0.74;100.00;99796.44;5097016;28;20863;-69
2024/01/16 03:47:27;;;;;;;1.50;0.30;;;;;;;-0.77;100.00;99798.53;5096771;28;20515;-70
2024/01/16 03:49:55;;;;;;;1.50;0.30;;;;;;;-0.83;100.00;99798.72;5096966;28;20497;-69
2024/01/16 03:52:21;;;;;;;1.50;0.30;;;;;;;-0.80;100.00;99799.03;5096724;28;20506;-69
2024/01/16 03:54:48;;;;;;;1.50;0.30;;;;;;;-0.77;100.00;99797.72;5096760;28;20523;-69
2024/01/16 03:57:14;;;;;;;1.47;0.30;;;;;;;-0.74;100.00;99802.56;5096867;28;20515;-70
2024/01/16 03:59:41;;;;;;;1.50;0.30;;;;;;;-0.67;100.00;99805.03;5096688;28;20501;-70
2024/01/16 04:02:08;;;;;;;1.47;0.30;;;;;;;-0.67;100.00;99807.69;5096873;28;20538;-70
2024/01/16 04:04:35;;;;;;;1.50;0.37;;;;;;;-0.73;100.00;99803.38;5096597;28;20436;-70
2024/01/16 04:07:03;;;;;;;1.50;0.50;;;;;;;-0.68;100.00;99806.88;5096556;28;20574;-70
2024/01/16 04:09:30;;;;;;;1.50;0.30;;;;;;;-0.73;100.00;99814.00;5096781;28;20475;-70
2024/01/16 04:11:56;;;;;;;1.50;0.50;;;;;;;-0.72;100.00;99811.09;5096339;28;20544;-70
2024/01/16 04:14:23;;;;;;;1.87;0.63;;;;;;;-0.69;100.00;99823.09;5096160;28;20476;-70
2024/01/16 04:16:50;;;;;;;1.47;0.30;;;;;;;-0.64;100.00;99818.66;5096002;28;20479;-70
2024/01/16 04:19:16;;;;;;;1.50;0.40;;;;;;;-0.66;100.00;99825.28;5096256;28;20939;-69
2024/01/16 04:21:43;;;;;;;1.50;0.30;;;;;;;-0.66;100.00;99831.41;5096203;28;20456;-70
2024/01/16 04:24:11;;;;;;;1.50;0.30;;;;;;;-0.73;100.00;99824.63;5096314;28;20442;-70
2024/01/16 04:26:38;;;;;;;1.97;0.60;;;;;;;-0.74;100.00;99833.66;5096124;28;20548;-70
2024/01/16 04:29:05;;;;;;;1.43;0.30;;;;;;;-0.72;100.00;99829.69;5096096;28;20437;-71
2024/01/16 04:31:32;;;;;;;1.50;0.30;;;;;;;-0.67;100.00;99835.09;5096290;28;20540;-71
2024/01/16 04:33:59;;;;;;;1.60;0.50;;;;;;;-0.67;100.00;99834.28;5096070;28;20928;-71
2024/01/16 04:36:25;;;;;;;1.70;0.50;;;;;;;-0.65;100.00;99832.19;5095725;28;20472;-72
2024/01/16 04:38:52;;;;;;;1.50;0.30;;;;;;;-0.67;100.00;99826.31;5095865;28;20441;-70
2024/01/16 04:41:20;;;;;;;2.23;1.23;;;;;;;-0.68;100.00;99830.03;5095858;28;20844;-71
2024/01/16 04:43:47;;;;;;;1.40;0.30;;;;;;;-0.76;100.00;99833.91;5095808;28;20498;-71
2024/01/16 04:46:15;;;;;;;1.50;0.40;;;;;;;-0.69;100.00;99833.75;5095409;28;20509;-70
2024/01/16 04:48:42;;;;;;;1.70;0.40;;;;;;;-0.65;100.00;99837.53;5095861;28;20521;-70
2024/01/16 04:51:08;;;;;;;2.03;0.60;;;;;;;-0.61;100.00;99835.97;5095293;28;21085;-70
2024/01/16 04:53:36;;;;;;;1.43;0.30;;;;;;;-0.63;100.00;99840.72;5095545;28;20940;-69
2024/01/16 04:56:02;;;;;;;1.50;0.40;;;;;;;-0.70;100.00;99842.78;5095474;28;20531;-69
2024/01/16 04:58:30;;;;;;;1.50;0.50;;;;;;;-0.71;100.00;99833.97;5095471;28;20436;-69
2024/01/16 05:00:57;;;;;;;1.50;0.40;;;;;;;-0.67;100.00;99836.94;5095525;28;20433;-69
2024/01/16 05:03:24;;;;;;;1.83;0.70;;;;;;;-0.67;100.00;99840.41;5095321;28;20547;-69
2024/01/16 05:05:50;;;;;;;1.50;0.30;;;;;;;-0.68;100.00;99845.97;5095365;28;20523;-69
2024/01/16 05:08:17;;;;;;;1.50;0.43;;;;;;;-0.67;100.00;99847.56;5095237;28;20476;-69
2024/01/16 05:10:44;;;;;;;1.50;0.40;;;;;;;-0.74;100.00;99834.47;5095645;28;20881;-69
2024/01/16 05:13:12;;;;;;;1.60;0.70;;;;;;;-0.73;100.00;99845.91;5095359;28;20548;-69
2024/01/16 05:15:41;;;;;;;1.50;0.30;;;;;;;-0.76;100.00;99855.97;5095186;28;20531;-69
2024/01/16 05:18:09;;;;;;;1.90;0.47;;;;;;;-0.79;100.00;99861.78;5095120;28;20476;-69
2024/01/16 05:20:36;;;;;;;1.50;0.40;;;;;;;-0.80;100.00;99864.69;5094719;28;20443;-70
2024/01/16 05:23:02;;;;;;;1.80;0.60;;;;;;;-0.74;100.00;99862.91;5095197;28;20972;-69
2024/01/16 05:25:29;;;;;;;1.60;0.40;;;;;;;-0.77;100.00;99865.00;5094192;28;20441;-69
2024/01/16 05:27:56;;;;;;;1.50;0.50;;;;;;;-0.83;100.00;99868.66;5094821;28;20567;-69
2024/01/16 05:30:23;;;;;;;1.97;1.17;;;;;;;-0.86;100.00;99860.34;5094974;28;20472;-69
2024/01/16 05:32:52;;;;;;;1.50;0.30;;;;;;;-0.88;100.00;99863.25;5095040;28;20484;-69
2024/01/16 05:35:18;;;;;;;1.50;0.40;;;;;;;-0.95;100.00;99864.47;5094886;28;20448;-69
2024/01/16 05:37:45;;;;;;;2.20;0.90;;;;;;;-0.98;100.00;99878.22;5094093;28;20940;-69
2024/01/16 05:40:12;;;;;;;1.50;0.30;;;;;;;-1.07;100.00;99877.81;5103162;22;20591;-70
2024/01/16 05:42:39;;;;;;;2.80;1.30;;;;;;;-1.10;100.00;99878.34;5074007;28;20473;-69
2024/01/16 05:45:06;;;;;;;1.50;0.40;;;;;;;-1.17;100.00;99878.47;5073577;28;20778;-69
2024/01/16 05:47:33;;;;;;;1.50;0.30;;;;;;;-1.18;100.00;99886.69;5073910;28;20483;-69
2024/01/16 05:50:01;;;;;;;2.37;0.70;;;;;;;-1.21;100.00;99885.31;5074184;28;20525;-71
2024/01/16 05:52:27;;;;;;;1.50;0.40;;;;;;;-1.24;100.00;99893.75;5074151;28;20526;-69
2024/01/16 05:54:57;;;;;;;3.50;1.43;;;;;;;-1.25;100.00;99896.66;5073817;28;20461;-69
2024/01/16 05:57:23;;;;;;;1.43;0.30;;;;;;;-1.30;100.00;99890.22;5073686;28;20862;-70
2024/01/16 05:59:50;;;;;;;2.20;0.73;;;;;;;-1.28;100.00;99901.44;5073735;28;20469;-70
2024/01/16 06:02:17;;;;;;;1.50;0.30;;;;;;;-1.23;100.00;99898.03;5073673;28;20548;-70
2024/01/16 06:04:43;;;;;;;1.50;0.30;;;;;;;-1.24;100.00;99892.94;5073721;28;20480;-71
2024/01/16 06:07:11;;;;;;;1.60;0.50;;;;;;;-1.31;100.00;99899.22;5073560;28;20503;-71
2024/01/16 06:09:40;;;;;;;4.13;1.90;;;;;;;-1.31;100.00;99890.47;5073909;28;20476;-72
2024/01/16 06:12:08;;;;;;;3.13;1.43;;;;;;;-1.30;100.00;99890.22;5073244;28;20477;-71
2024/01/16 06:14:34;;;;;;;1.50;0.30;;;;;;;-1.38;100.00;99897.75;5073892;28;20503;-71
2024/01/16 06:17:03;;;;;;;1.50;0.40;;;;;;;-1.41;100.00;99909.69;5074282;28;20537;-71
2024/01/16 06:19:29;;;;;;;1.50;0.30;;;;;;;-1.43;100.00;99895.84;5073459;28;20441;-71
2024/01/16 06:21:56;;;;;;;10.47;1.13;;;;;;;-1.41;100.00;99904.38;5073833;28;20492;-71
2024/01/16 06:24:24;;;;;;;1.60;0.40;;;;;;;-1.40;100.00;99910.50;5073767;28;20441;-71
2024/01/16 06:26:51;;;;;;;3.30;1.07;;;;;;;-1.46;100.00;99922.88;5074158;28;20437;-71
2024/01/16 06:29:18;;;;;;;1.77;0.83;;;;;;;-1.47;100.00;99923.91;5073393;28;20792;-71
2024/01/16 06:31:44;;;;;;;1.67;0.63;;;;;;;-1.52;100.00;99927.28;5073594;28;20896;-71
2024/01/16 06:34:11;;;;;;;2.73;1.10;;;;;;;-1.48;100.00;99924.97;5073885;28;20525;-71
2024/01/16 06:36:38;;;;;;;1.50;0.40;;;;;;;-1.56;100.00;99935.94;5073208;28;20437;-71
2024/01/16 06:39:06;;;;;;;1.70;0.87;;;;;;;-1.51;100.00;99936.03;5073613;28;20483;-71
2024/01/16 06:41:34;;;;;;;3.00;0.83;;;;;;;-1.57;100.00;99948.44;5073236;28;20851;-70
2024/01/16 06:44:01;;;;;;;1.70;0.73;;;;;;;-1.52;100.00;99951.16;5073304;28;20896;-70
2024/01/16 06:46:27;;;;;;;1.80;0.90;;;;;;;-1.52;100.00;99958.34;5073769;28;20536;-71
2024/01/16 06:48:54;;;;;;;1.47;0.30;;;;;;;-1.48;100.00;99961.34;5073317;28;20509;-70
2024/01/16 06:51:20;;;;;;;5.50;1.53;;;;;;;-1.35;100.00;99967.16;5073220;28;20466;-70
2024/01/16 06:53:47;;;;;;;1.50;0.50;;;;;;;-1.27;100.00;99964.13;5073622;28;20532;-70
2024/01/16 06:56:14;;;;;;;2.60;2.00;;;;;;;-1.18;100.00;99971.72;5073775;28;20536;-70
2024/01/16 06:58:42;;;;;;;1.73;0.80;;;;;;;-1.23;100.00;99971.63;5073461;28;20962;-70
2024/01/16 07:01:10;;;;;;;3.60;1.20;;;;;;;-1.31;100.00;99973.63;5073461;28;20477;-71
2024/01/16 07:03:37;;;;;;;1.63;0.53;;;;;;;-1.33;100.00;99986.34;5073534;28;20468;-72
2024/01/16 07:06:04;;;;;;;1.50;0.30;;;;;;;-1.24;100.00;99981.41;5073570;28;20461;-70
2024/01/16 07:08:30;;;;;;;1.50;0.40;;;;;;;-1.18;100.00;99979.69;5073536;28;20477;-72
2024/01/16 07:10:57;;;;;;;1.80;0.50;;;;;;;-1.13;100.00;99983.22;5073508;28;20532;-72
2024/01/16 07:13:24;;;;;;;1.50;0.40;;;;;;;-1.12;100.00;99982.19;5073147;28;20467;-74
2024/01/16 07:15:52;;;;;;;1.50;0.30;;;;;;;-1.09;100.00;99981.72;5073388;28;20481;-72
2024/01/16 07:18:18;;;;;;;1.43;0.30;;;;;;;-1.09;100.00;99986.22;5073402;28;20429;-72
2024/01/16 07:20:46;;;;;;;1.50;0.40;;;;;;;-1.18;100.00;99990.31;5073513;28;20529;-72
2024/01/16 07:23:13;;;;;;;1.50;0.40;;;;;;;-1.14;100.00;99996.75;5072938;28;20465;-72
2024/01/16 07:25:40;;;;;;;1.80;0.60;;;;;;;-1.07;100.00;99995.56;5073295;28;20449;-72
2024/01/16 07:28:08;;;;;;;1.70;0.67;;;;;;;-1.11;100.00;99988.28;5073379;28;20485;-73
2024/01/16 07:30:36;;;;;;;1.80;0.50;;;;;;;-1.04;100.00;99995.09;5072967;28;20441;-73
2024/01/16 07:33:05;;;;;;;2.73;0.70;;;;;;;-0.99;100.00;99997.03;5072778;28;20821;-74
2024/01/16 07:35:31;;;;;;;1.50;0.43;;;;;;;-1.02;100.00;99997.50;5072805;28;20524;-72
2024/01/16 07:37:58;;;;;;;1.50;0.47;;;;;;;-0.99;100.00;99993.56;5073123;28;20864;-70
2024/01/16 07:40:25;;;;;;;1.50;0.40;;;;;;;-0.97;100.00;100000.25;5072698;28;20495;-72
2024/01/16 07:42:52;;;;;;;1.50;0.50;;;;;;;-1.00;100.00;100000.72;5072639;28;20461;-72
2024/01/16 07:45:19;;;;;;;1.50;0.30;;;;;;;-0.97;100.00;100005.56;5072898;28;20545;-70
2024/01/16 07:47:45;;;;;;;1.43;0.30;;;;;;;-1.05;100.00;100008.63;5073789;28;20818;-70
2024/01/16 07:50:13;;;;;;;2.03;1.07;;;;;;;-0.98;100.00;100014.56;5075391;28;20520;-70
2024/01/16 07:52:40;;;;;;;1.87;0.67;;;;;;;-0.89;100.00;100017.66;5076384;28;20892;-70
2024/01/16 07:55:07;;;;;;;1.60;0.60;;;;;;;-0.80;100.00;100011.72;5076512;28;20536;-70
2024/01/16 07:57:34;;;;;;;1.50;0.30;;;;;;;-0.74;100.00;100017.13;5076971;28;20495;-71
2024/01/16 08:00:00;;;;;;;1.83;0.60;;;;;;;-0.72;100.00;100023.00;5076715;28;20472;-70
2024/01/16 08:02:32;;;;;;;1.47;0.40;;;;;;;-0.72;100.00;100029.13;5076705;28;20484;-70
2024/01/16 08:04:59;;;;;;;1.50;0.40;;;;;;;-0.76;100.00;100027.97;5076179;28;20449;-70
2024/01/16 08:07:28;;;;;;;2.57;1.13;;;;;;;-0.78;100.00;100030.09;5076522;28;20433;-70
2024/01/16 08:09:54;;;;;;;1.50;0.30;;;;;;;-0.76;100.00;100035.97;5076365;28;20503;-69
2024/01/16 08:12:21;;;;;;;1.50;0.40;;;;;;;-0.72;100.00;100045.06;5076149;28;20544;-70
2024/01/16 08:14:48;;;;;;;1.50;0.30;;;;;;;-0.71;100.00;100043.22;5075794;28;20948;-70
2024/01/16 08:17:14;;;;;;;1.70;0.80;;;;;;;-0.71;100.00;100046.69;5076018;28;20469;-69
2024/01/16 08:19:42;;;;;;;2.23;0.83;;;;;;;-0.66;100.00;100043.31;5076022;28;20497;-69
2024/01/16 08:22:08;;;;;;;1.50;0.30;;;;;;;-0.66;100.00;100041.47;5076396;28;20544;-69
2024/01/16 08:24:38;;;;;;;1.70;0.60;;;;;;;-0.62;100.00;100047.09;5075462;28;20983;-69
2024/01/16 08:27:04;;;;;;;2.67;1.40;;;;;;;-0.61;100.00;100051.38;5075909;28;20469;-69
2024/01/16 08:29:31;;;;;;;1.90;0.90;;;;;;;-0.54;100.00;100046.69;5075766;28;20577;-70
2024/01/16 08:31:58;;;;;;;1.47;0.30;;;;;;;-0.47;100.00;100047.34;5075976;28;20493;-69
2024/01/16 08:34:24;;;;;;;1.50;0.30;;;;;;;-0.43;100.00;100048.50;5075662;28;20530;-70
2024/01/16 08:36:54;;;;;;;2.10;1.03;;;;;;;-0.37;100.00;100052.84;5075909;28;20536;-69
2024/01/16 08:39:21;;;;;;;3.30;0.83;;;;;;;-0.27;100.00;100052.19;5075769;28;20499;-69
2024/01/16 08:41:49;;;;;;;1.63;0.57;;;;;;;-0.26;100.00;100046.63;5075552;28;20575;-69
2024/01/16 08:44:15;;;;;;;1.50;0.30;;;;;;;-0.31;100.00;100043.06;5075476;28;20445;-71
2024/01/16 08:46:42;;;;;;;3.67;1.17;;;;;;;-0.29;100.00;100039.13;5075473;28;20438;-70
2024/01/16 08:49:09;;;;;;;1.50;0.30;;;;;;;-0.26;100.00;100043.97;5075346;28;20564;-70
2024/01/16 08:51:36;;;;;;;1.50;0.30;;;;;;;-0.27;100.00;100045.03;5075460;28;20457;-70
2024/01/16 08:54:02;;;;;;;1.50;0.50;;;;;;;-0.31;100.00;100046.56;5075123;28;21015;-70
2024/01/16 08:56:29;;;;;;;2.03;0.70;;;;;;;-0.19;100.00;100043.00;5075360;28;20527;-70
2024/01/16 08:58:57;;;;;;;2.37;2.03;;;;;;;-0.14;100.00;100046.53;5075754;28;20457;-70
2024/01/16 09:01:23;;;;;;;1.90;1.07;;;;;;;-0.09;100.00;100043.97;5073925;28;20539;-70
2024/01/16 09:03:50;;;;;;;1.87;0.83;;;;;;;-0.07;100.00;100052.50;5076008;28;20469;-70
2024/01/16 09:06:17;;;;;;;1.43;0.30;;;;;;;-0.11;100.00;100055.91;5075025;28;20460;-70
2024/01/16 09:08:44;;;;;;;6.23;1.63;;;;;;;-0.07;100.00;100057.03;5074902;28;20484;-70
2024/01/16 09:11:11;;;;;;;1.50;0.40;;;;;;;0.01;100.00;100053.16;5074909;28;20503;-70
2024/01/16 09:13:38;;;;;;;1.43;0.30;;;;;;;0.06;100.00;100050.56;5075224;28;20955;-69
2024/01/16 09:16:06;;;;;;;1.47;0.30;;;;;;;0.13;100.00;100051.16;5074518;28;20949;-69
2024/01/16 09:18:33;;;;;;;1.80;0.60;;;;;;;0.10;100.00;100057.00;5074958;28;20575;-69
2024/01/16 09:21:00;;;;;;;2.50;0.70;;;;;;;0.16;100.00;100061.34;5075589;28;20491;-69
2024/01/16 09:23:26;;;;;;;1.60;0.60;;;;;;;0.19;100.00;100061.66;5075309;28;20497;-69
2024/01/16 09:25:53;;;;;;;1.60;0.50;;;;;;;0.23;100.00;100062.78;5075056;28;20933;-68
2024/01/16 09:28:19;;;;;;;3.50;3.20;;;;;;;0.21;100.00;100064.88;5074643;28;20516;-70
2024/01/16 09:30:46;;;;;;;1.50;0.50;;;;;;;0.23;100.00;100065.44;5074645;28;20465;-70
2024/01/16 09:33:16;;;;;;;1.87;0.90;;;;;;;0.30;100.00;100067.13;5074181;28;20484;-70
2024/01/16 09:35:43;;;;;;;1.40;0.30;;;;;;;0.31;100.00;100068.72;5074870;28;20499;-71
2024/01/16 09:38:09;;;;;;;4.63;1.17;;;;;;;0.32;100.00;100067.69;5074543;28;20441;-70
2024/01/16 09:40:36;;;;;;;2.20;1.07;;;;;;;0.34;100.00;100065.56;5074255;28;20892;-70
2024/01/16 09:43:04;;;;;;;2.80;1.47;;;;;;;0.35;100.00;100069.84;5074657;28;20522;-70
2024/01/16 09:45:31;;;;;;;1.50;0.40;;;;;;;0.37;100.00;100076.53;5074470;28;20937;-70
2024/01/16 09:48:00;;;;;;;1.60;0.50;;;;;;;0.45;100.00;100067.34;5074316;28;20438;-70
2024/01/16 09:50:28;;;;;;;4.80;2.00;;;;;;;0.54;100.00;100075.69;5074713;28;20437;-70
2024/01/16 09:52:54;;;;;;;2.13;0.70;;;;;;;0.54;100.00;100073.03;5074386;28;20556;-70
2024/01/16 09:55:21;;;;;;;2.37;1.00;;;;;;;0.64;100.00;100073.97;5073953;28;20503;-71
2024/01/16 09:57:53;;;;;;;1.60;0.40;;;;;;;0.73;100.00;100072.47;5074505;28;20481;-71
2024/01/16 10:00:20;;;;;;;2.53;1.60;;;;;;;0.81;100.00;100073.09;5074250;28;20421;-71
2024/01/16 10:02:47;;;;;;;1.50;0.40;;;;;;;0.83;100.00;100076.31;5073654;28;20484;-71
2024/01/16 10:05:14;;;;;;;2.23;0.73;;;;;;;0.86;100.00;100071.28;5074018;28;20472;-71
2024/01/16 10:07:44;;;;;;;1.80;0.60;;;;;;;0.94;100.00;100076.19;5074020;28;20442;-71
2024/01/16 10:10:11;;;;;;;5.80;1.07;;;;;;;0.96;100.00;100075.91;5073663;28;20485;-71
2024/01/16 10:12:39;;;;;;;1.53;0.53;;;;;;;1.01;100.00;100075.97;5073638;28;20461;-71
2024/01/16 10:15:08;;;;;;;2.93;0.70;;;;;;;1.04;100.00;100070.16;5073629;28;20444;-71
2024/01/16 10:17:39;;;;;;;1.60;0.50;;;;;;;1.08;100.00;100068.59;5074187;28;20878;-71
2024/01/16 10:20:07;;;;;;;2.00;0.87;;;;;;;1.12;100.00;100075.03;5073756;28;20440;-71
2024/01/16 10:22:34;;;;;;;1.60;0.67;;;;;;;1.15;100.00;100071.03;5073231;28;20870;-69
2024/01/16 10:25:11;;;;;;;9.23;1.33;;;;;;;1.19;100.00;100074.81;5073730;28;20967;-68
2024/01/16 10:27:39;;;;;;;1.50;0.40;;;;;;;1.16;100.00;100073.47;5073745;28;20426;-72
2024/01/16 10:30:07;;;;;;;1.80;1.03;;;;;;;1.21;100.00;100072.72;5073594;28;20580;-73
2024/01/16 10:32:35;;;;;;;1.70;0.70;;;;;;;1.22;100.00;100071.66;5073506;28;20461;-72
2024/01/16 10:35:07;;;;;;;2.57;1.33;;;;;;;1.24;100.00;100074.91;5073619;28;20517;-72
2024/01/16 10:37:43;;;;;;;3.03;1.20;;;;;;;1.27;100.00;100077.84;5073626;28;20898;-71
2024/01/16 10:40:12;;;;;;;1.60;0.57;;;;;;;1.24;100.00;100078.38;5073418;28;20531;-70
2024/01/16 10:42:38;;;;;;;1.50;0.40;;;;;;;1.25;100.00;100079.97;5073479;28;20556;-70
2024/01/16 10:45:06;;;;;;;1.50;0.30;;;;;;;1.22;100.00;100075.13;5073697;28;20452;-71
2024/01/16 10:47:36;;;;;;;1.60;0.57;;;;;;;1.22;100.00;100077.00;5073558;28;20487;-70
2024/01/16 10:50:05;;;;;;;1.43;0.30;;;;;;;1.17;100.00;100080.41;5073467;28;20481;-71
2024/01/16 10:52:34;;;;;;;1.80;0.80;;;;;;;1.15;100.00;100082.53;5073454;28;20464;-71
2024/01/16 10:55:04;;;;;;;1.50;0.30;;;;;;;1.18;100.00;100090.03;5073306;28;20494;-71
2024/01/16 10:57:32;;;;;;;1.50;0.40;;;;;;;1.12;100.00;100085.72;5073417;28;20464;-71
2024/01/16 11:00:05;;;;;;;3.30;1.10;;;;;;;1.16;100.00;100084.16;5073889;28;20530;-71
2024/01/16 11:02:41;;;;;;;1.80;0.50;;;;;;;1.14;100.00;100091.59;5073270;28;20987;-71
2024/01/16 11:05:11;;;;;;;1.83;0.70;;;;;;;1.16;100.00;100078.00;5073329;28;20453;-71
2024/01/16 11:07:39;;;;;;;1.50;0.40;;;;;;;1.21;100.00;100075.41;5073278;28;20449;-71
2024/01/16 11:10:08;;;;;;;1.50;0.40;;;;;;;1.21;100.00;100078.84;5073169;28;20489;-72
2024/01/16 11:12:39;;;;;;;1.40;0.40;;;;;;;1.18;100.00;100079.34;5072885;28;20472;-71
2024/01/16 11:15:07;;;;;;;1.50;0.50;;;;;;;1.19;100.00;100080.16;5073536;28;20421;-74
2024/01/16 11:17:35;;;;;;;1.50;0.30;;;;;;;1.19;100.00;100075.63;5073792;28;20446;-71
2024/01/16 11:20:05;;;;;;;2.17;0.70;;;;;;;1.17;100.00;100077.75;5073241;28;20902;-71
2024/01/16 11:22:33;;;;;;;3.00;0.70;;;;;;;1.13;100.00;100073.97;5073116;28;20465;-71
2024/01/16 11:25:10;;;;;;;1.50;0.50;;;;;;;1.14;100.00;100072.09;5075625;28;20535;-72